Lake Levels Lake Levels   »   United States   »   Texas
LAKES RIVERS MARINAS NEWS HOUSES EVENTS MAPS
1,681 Lakes:
Lake Store

Lake Levels in Texas, United States

Lake Name Current
Level
Full Pool +/-
Full Pool
Reading
Date - Time
Alan Henry (TX) 2,217.07 2,224.00 -6.93 5/25/2017  9:30 AM
Amistad (TX) 1,084.12 1,117.00 -32.88 5/25/2017  12:15 PM
Amon Carter (TX) 920.05 920.00 0.05 5/25/2017  1:00 PM
Aquilla (TX) 537.57 537.50 0.07 5/25/2017  1:30 PM
Arlington (TX) 547.74 550.00 -2.26 5/25/2017  1:15 PM
Arrowhead (TX) 925.07 926.00 -0.93 5/25/2017  11:00 AM
Athens (TX) 440.27 440.00 0.27 5/25/2017  12:30 PM
Austin (TX) 491.92 492.80 -0.88 5/25/2017  1:00 PM
Bardwell (TX) 421.20 421.00 0.20 5/25/2017  1:30 PM
Belton (TX) 594.93 594.00 0.93 5/25/2017  1:00 PM
Benbrook (TX) 688.35 694.00 -5.65 5/25/2017  1:00 PM
Bob Sandlin (TX) 337.94 337.50 0.44 5/25/2017  9:50 AM
Bonham (TX) 562.00 565.00 -3.00 5/25/2017  1:00 PM
Brady Creek (TX) 1,737.10 1,743.00 -5.90 5/25/2017  1:45 PM
Bridgeport (TX) 835.73 836.00 -0.27 5/25/2017  12:00 PM
Brownwood (TX) 1,425.08 1,425.00 0.08 5/25/2017  1:30 PM
Buchanan (TX) 1,017.71 1,020.50 -2.79 5/25/2017  10:05 AM
Buffalo Creek (TX) 1,046.24 1,049.00 -2.76 5/25/2017  12:00 AM
Caddo (LA TX) 170.00 168.50 1.50 5/25/2017  6:00 AM
Canyon (TX) 908.76 909.00 -0.24 5/25/2017  1:15 PM
Cedar Creek (TX) 321.89 322.00 -0.11 5/25/2017  1:45 PM
Champion Creek (TX) 2,066.09 2,083.00 -16.91 5/25/2017  11:45 AM
Cherokee (TX) 278.52 280.00 -1.48 5/25/2017  12:45 PM
Choke Canyon (TX) 199.38 220.50 -21.12 5/25/2017  7:30 AM
Cisco (TX) 1,519.60 1,520.00 -0.40 5/25/2017  2:30 PM
Coleman (TX) 1,717.53 1,718.00 -0.47 5/25/2017  1:30 PM
Coleto Creek (TX) 96.98 98.28 -1.30 5/25/2017  12:00 PM
Colorado City (TX) 2,057.19 2,070.20 -13.01 5/25/2017  11:45 AM
Conroe (TX) 201.02 201.00 0.02 5/25/2017  10:32 AM
Corpus Christi (TX) 92.52 94.00 -1.48 5/25/2017  8:12 AM
E. V. Spence (TX) 1,849.37 1,898.00 -48.63 5/25/2017  1:00 PM
Eagle Mountain (TX) 648.47 649.00 -0.53 5/25/2017  1:00 PM
Falcon (TX) 267.62 301.20 -33.58 5/25/2017  12:15 PM
Fork (TX) 403.07 403.00 0.07 5/25/2017  12:30 PM
Georgetown (TX) 789.27 791.00 -1.73 5/25/2017  1:00 PM
Graham (TX) 1,074.23 1,075.00 -0.77 5/25/2017  10:00 AM
Granbury (TX) 692.35 693.00 -0.65 5/25/2017  1:30 PM
Granger (TX) 504.80 504.00 0.80 5/25/2017  8:00 AM
Grapevine (TX) 534.77 535.00 -0.23 5/25/2017  1:45 PM
Hords Creek (TX) 1,896.70 1,900.00 -3.30 5/25/2017  6:30 AM
Houston (TX) 42.50 41.70 0.80 5/25/2017  1:30 PM
Hubbard Creek (TX) 1,182.48 1,183.00 -0.52 5/25/2017  11:15 AM
Hubert M Moss (TX) 714.54 715.00 -0.46 5/25/2017  11:15 AM
Inks (TX) 887.32 886.90 0.42 5/25/2017  1:00 PM
Jacksonville (TX) 422.18 422.00 0.18 5/25/2017  12:00 AM
JB Thomas (TX) 2,244.65 2,258.00 -13.35 5/25/2017  1:45 PM
Jim Chapman (TX) 436.65 440.00 -3.35 5/25/2017  9:50 AM
Joe Pool (TX) 521.60 522.00 -0.40 5/25/2017  9:00 AM
Kemp (TX) 1,144.72 1,144.00 0.72 5/25/2017  1:15 PM
Kickapoo (TX) 1,043.01 1,045.00 -1.99 5/25/2017  1:00 PM
Lake O' the Pines (TX) 230.37 228.50 1.87 5/25/2017  9:50 AM
Lavon (TX) 490.95 492.00 -1.05 5/25/2017  1:00 PM
Leon (TX) 1,372.32 5/25/2017  1:45 PM
Lewisville (TX) 521.59 522.00 -0.41 5/25/2017  1:30 PM
Limestone (TX) 363.36 363.00 0.36 5/25/2017  12:45 PM
Livingston (TX) 131.29 131.00 0.29 5/25/2017  1:15 PM
Lyndon B. Johnson (TX) 824.71 825.00 -0.29 5/25/2017  10:05 AM
MacKenzie (TX) 3,026.63 3,100.00 -73.37 5/25/2017  1:30 PM
Marble Falls (TX) 736.36 737.00 -0.64 5/25/2017  10:05 AM
Martin Creek (TX) 305.99 306.00 -0.01 5/25/2017  1:30 PM
Medina (TX) 1,059.61 1,062.00 -2.39 5/25/2017  12:00 PM
Meredith (TX) 2,877.02 2,941.00 -63.98 5/25/2017  12:30 PM
Mexia (TX) 448.40 448.30 0.10 5/25/2017  1:15 PM
Millers Creek (TX) 1,333.45 1,334.00 -0.55 5/25/2017  12:00 PM
Mineral Wells (TX) 863.01 863.00 0.01 5/25/2017  6:30 PM
Moss Creek (TX) 2,332.60 2,337.00 -4.40 5/25/2017  1:30 PM
Murvaul (TX) 265.35 265.50 -0.15 5/25/2017  9:50 AM
Nacogdoches (TX) 279.54 279.00 0.54 5/25/2017  9:50 AM
Navarro Mills (TX) 424.50 424.50 -0.00 5/25/2017  12:00 PM
Nocona (TX) 827.45 827.00 0.45 5/25/2017  12:00 PM
O. C. Fisher (TX) 1,873.33 1,908.00 -34.67 5/25/2017  12:00 PM
O.H. Ivie (TX) 1,518.47 1,551.50 -33.03 5/25/2017  12:15 PM
Oak Creek (TX) 1,992.01 2,000.00 -7.99 5/25/2017  12:00 AM
Palestine (TX) 345.13 345.00 0.13 5/25/2017  9:50 AM
Palo Pinto (TX) 866.12 867.00 -0.88 5/25/2017  1:15 PM
Pat Cleburne (TX) 733.00 733.60 -0.60 5/25/2017  1:00 PM
Pat Mayse (TX) 451.20 451.00 0.20 5/25/2017  9:50 AM
Phantom Hill (TX) 1,636.15 1,635.90 0.25 5/25/2017  1:30 PM
Possum Kingdom (TX) 998.54 1,000.00 -1.46 5/25/2017  9:32 AM
Proctor (TX) 1,161.96 1,162.00 -0.04 5/25/2017  1:30 PM
Ray Hubbard (TX) 434.86 435.50 -0.64 5/25/2017  1:30 PM
Ray Roberts (TX) 632.22 632.50 -0.28 5/25/2017  1:15 PM
Red Bluff (TX) 2,823.32 2,827.13 -3.81 5/25/2017  1:15 PM
Richland Chambers (TX) 314.76 315.00 -0.24 5/25/2017  9:32 AM
Sam Rayburn (TX) 163.27 164.40 -1.13 5/25/2017  1:00 PM
Somerville (TX) 237.94 238.00 -0.06 5/25/2017  1:00 PM
Squaw Creek (TX) 775.29 775.00 0.29 5/25/2017  11:00 AM
Stamford (TX) 1,415.69 1,417.00 -1.31 5/25/2017  11:30 AM
Steinhagen Reservoir (TX) 82.21 82.40 -0.19 5/25/2017  1:00 PM
Stillhouse Hollow (TX) 622.46 622.00 0.46 5/25/2017  12:00 AM
Tawakoni (TX) 435.39 437.50 -2.11 5/25/2017  1:30 PM
Texana (TX) 43.51 44.00 -0.49 5/25/2017  1:00 PM
Texoma (TX) 619.29 617.00 2.29 5/25/2017  1:00 PM
Toledo Bend (TX LA) 171.55 172.00 -0.45 5/25/2017  1:45 PM
Travis (TX) 679.13 681.00 -1.87 5/25/2017  1:00 PM
Twin Buttes (TX) 1,905.58 1,940.00 -34.42 5/25/2017  12:00 AM
Tyler (TX) 375.55 375.50 0.05 5/25/2017  9:50 AM
Waco (TX) 462.45 462.00 0.45 5/25/2017  12:15 AM
Waxahachie (TX) 531.27 5/25/2017  12:00 AM
White River (TX) 2,351.83 5/25/2017  12:15 PM
Whitney (TX) 530.74 533.00 -2.26 5/25/2017  12:15 PM
Worth (TX) 593.03 594.00 -0.97 5/25/2017  1:00 PM
Wright Patman (TX) 226.97 220.60 6.37 5/25/2017  9:50 AM


CURRENT DAILY STREAMFLOW CONDITIONS
High
90th percentile
75th - 89th percentile
25th - 74th percentile
10th - 24th percentile
10th percentile
Low
Not ranked

The colored dots on this map depict streamflow conditions as a percentile, which is computed from the period of record for the current day of the year. Only stations with at least 30 years of record are used. The gray circles indicate other stations that were not ranked in percentiles either because they have fewer than 30 years of record or because they report parameters other than streamflow. Some stations, for example, measure stage only.
U.S. Daily Streamflow Conditions



U.S. Drought Monitor